Time;durP1;ratioP1;P1;durP2;ratioP2;P2;SDS_P1;SDS_P2;PMS_P1;PMS_P2;Temp;Humidity;BMP_temperature;BMP_pressure;BME280_temperature;BME280_humidity;BME280_pressure;Samples;Min_cycle;Max_cycle;Signal;HPM_P1;HPM_P2
2021/11/18 00:00:54;;;;;;;13.75;3.22;;;7.80;99.90;;;;;;4997058;28;20042;-53
2021/11/18 00:03:21;;;;;;;15.05;4.20;;;7.80;99.90;;;;;;4996942;28;20120;-53
2021/11/18 00:05:47;;;;;;;15.45;3.92;;;7.80;99.90;;;;;;4996957;28;20392;-53
2021/11/18 00:08:13;;;;;;;23.30;4.05;;;7.80;99.90;;;;;;4996883;28;20034;-53
2021/11/18 00:11:04;;;;;;;20.63;4.35;;;7.80;99.90;;;;;;4997272;28;20683;-53
2021/11/18 00:13:33;;;;;;;19.38;3.97;;;7.70;99.90;;;;;;4996993;28;20046;-52
2021/11/18 00:16:00;;;;;;;19.10;4.15;;;7.70;99.90;;;;;;4996421;28;20412;-53
2021/11/18 00:18:28;;;;;;;19.10;3.72;;;7.70;99.90;;;;;;4996482;28;20042;-54
2021/11/18 00:20:57;;;;;;;19.52;4.38;;;7.60;99.90;;;;;;4996469;28;20081;-53
2021/11/18 00:23:26;;;;;;;18.23;3.40;;;7.60;99.90;;;;;;4996432;28;20068;-53
2021/11/18 00:25:52;;;;;;;12.77;3.38;;;7.60;99.90;;;;;;4996659;28;20035;-52
2021/11/18 00:28:17;;;;;;;21.48;3.35;;;7.70;99.90;;;;;;4996481;28;20504;-54
2021/11/18 00:30:44;;;;;;;19.58;3.72;;;7.70;99.90;;;;;;4996392;28;20031;-53
2021/11/18 00:33:11;;;;;;;16.27;3.47;;;7.70;99.90;;;;;;4996492;28;20104;-53
2021/11/18 00:35:37;;;;;;;17.73;4.05;;;7.70;99.90;;;;;;4996827;28;20070;-52
2021/11/18 00:38:04;;;;;;;21.52;4.47;;;7.70;99.90;;;;;;4996163;28;20038;-52
2021/11/18 00:40:36;;;;;;;15.57;3.50;;;7.70;99.90;;;;;;4996229;28;20041;-54
2021/11/18 00:43:05;;;;;;;17.30;3.25;;;7.80;99.90;;;;;;4996367;28;20049;-53
2021/11/18 00:45:31;;;;;;;19.45;3.85;;;7.70;99.90;;;;;;4996214;28;20050;-53
2021/11/18 00:47:57;;;;;;;15.13;3.58;;;7.70;99.90;;;;;;4995742;28;20042;-54
2021/11/18 00:50:27;;;;;;;17.77;4.03;;;7.60;99.90;;;;;;4995760;28;20126;-53
2021/11/18 00:52:53;;;;;;;17.48;3.65;;;7.70;99.90;;;;;;4995933;28;20488;-54
2021/11/18 00:55:20;;;;;;;16.88;3.88;;;7.70;99.90;;;;;;4996127;28;20034;-53
2021/11/18 00:57:45;;;;;;;18.00;4.00;;;7.70;99.90;;;;;;4995741;28;20472;-53
2021/11/18 01:00:27;;;;;;;11.52;3.03;;;7.60;99.90;;;;;;4995739;28;20049;-54
2021/11/18 01:02:54;;;;;;;26.63;4.43;;;7.60;99.90;;;;;;4995833;28;20045;-52
2021/11/18 01:05:25;;;;;;;12.48;3.10;;;7.60;99.90;;;;;;4995745;28;20554;-53
2021/11/18 01:07:52;;;;;;;15.85;3.20;;;7.60;99.90;;;;;;4995643;28;20039;-54
2021/11/18 01:10:18;;;;;;;23.25;4.13;;;7.60;99.90;;;;;;4995691;28;20058;-52
2021/11/18 01:12:45;;;;;;;20.08;4.25;;;7.60;99.90;;;;;;4995818;28;20042;-52
2021/11/18 01:15:15;;;;;;;18.60;3.40;;;7.60;99.90;;;;;;4995410;28;20149;-53
2021/11/18 01:17:42;;;;;;;23.75;3.97;;;7.60;99.90;;;;;;4994565;28;20043;-54
2021/11/18 01:20:09;;;;;;;21.02;3.88;;;7.70;99.90;;;;;;4995363;28;20472;-54
2021/11/18 01:22:35;;;;;;;19.27;3.72;;;7.70;99.90;;;;;;4995489;28;20487;-53
2021/11/18 01:25:01;;;;;;;20.20;4.93;;;7.70;99.90;;;;;;4995181;28;20109;-53
2021/11/18 01:27:27;;;;;;;23.48;4.03;;;7.70;99.90;;;;;;4995023;28;20480;-52
2021/11/18 01:29:53;;;;;;;17.45;3.63;;;7.80;99.90;;;;;;4995265;28;20050;-53
2021/11/18 01:32:19;;;;;;;18.27;4.88;;;7.80;99.90;;;;;;4994958;28;20054;-53
2021/11/18 01:34:44;;;;;;;23.23;5.53;;;7.80;99.90;;;;;;4995058;28;20038;-51
2021/11/18 01:37:10;;;;;;;21.33;5.20;;;7.80;99.90;;;;;;4995161;28;20389;-52
2021/11/18 01:39:36;;;;;;;17.20;3.42;;;7.80;99.90;;;;;;4995017;28;20137;-52
2021/11/18 01:42:02;;;;;;;15.40;4.05;;;7.80;99.90;;;;;;4995024;28;20391;-54
2021/11/18 01:44:37;;;;;;;23.73;4.47;;;7.80;99.90;;;;;;4994818;28;20053;-51
2021/11/18 01:47:03;;;;;;;25.35;5.18;;;7.80;99.90;;;;;;4994695;28;20082;-53
2021/11/18 01:49:29;;;;;;;23.83;4.57;;;7.80;99.90;;;;;;4994911;28;20046;-54
2021/11/18 01:51:58;;;;;;;26.15;4.90;;;7.80;99.90;;;;;;4994712;28;20042;-53
2021/11/18 01:54:28;;;;;;;21.40;4.85;;;7.90;99.90;;;;;;4994788;28;20429;-52
2021/11/18 01:56:54;;;;;;;20.55;4.22;;;7.90;99.90;;;;;;5026077;28;20073;-52
2021/11/18 01:59:30;;;;;;;19.15;4.57;;;7.90;99.90;;;;;;4994454;28;20042;-53
2021/11/18 02:01:57;;;;;;;15.18;3.88;;;8.00;99.90;;;;;;5026525;28;20587;-53
2021/11/18 02:04:27;;;;;;;22.42;4.05;;;7.90;99.90;;;;;;4994714;28;20081;-52
2021/11/18 02:07:00;;;;;;;22.35;4.53;;;7.90;99.90;;;;;;4994544;28;20385;-54
2021/11/18 02:09:29;;;;;;;21.95;4.65;;;7.90;99.90;;;;;;4994406;28;20428;-53
2021/11/18 02:12:05;;;;;;;22.38;4.45;;;7.90;99.90;;;;;;4994428;28;20444;-53
2021/11/18 02:14:31;;;;;;;25.17;4.70;;;7.90;99.90;;;;;;4994472;28;20492;-53
2021/11/18 02:17:00;;;;;;;35.90;5.97;;;8.00;99.90;;;;;;4994004;28;20097;-53
2021/11/18 02:19:28;;;;;;;32.47;4.78;;;8.00;99.90;;;;;;4994376;28;20042;-53
2021/11/18 02:21:54;;;;;;;26.77;4.78;;;8.10;99.90;;;;;;4994626;28;20085;-52
2021/11/18 02:24:24;;;;;;;24.00;4.60;;;8.10;99.90;;;;;;4994259;28;20038;-52
2021/11/18 02:26:51;;;;;;;24.92;4.90;;;8.20;99.90;;;;;;4994349;28;20112;-53
2021/11/18 02:29:19;;;;;;;20.48;4.57;;;8.30;99.90;;;;;;5025578;28;20039;-53
2021/11/18 02:32:08;;;;;;;26.27;5.28;;;8.30;99.90;;;;;;4994254;28;20034;-53
2021/11/18 02:34:47;;;;;;;21.92;4.75;;;8.30;99.90;;;;;;4993709;28;20057;-53
2021/11/18 02:37:13;;;;;;;26.45;5.53;;;8.30;99.90;;;;;;5008988;28;20095;-53
2021/11/18 02:39:39;;;;;;;31.80;5.90;;;8.30;99.90;;;;;;4993657;28;20428;-53
2021/11/18 02:42:07;;;;;;;30.58;5.53;;;8.40;99.90;;;;;;4993739;28;20468;-53
2021/11/18 02:44:33;;;;;;;27.80;5.30;;;8.40;99.90;;;;;;4993752;28;20034;-54
2021/11/18 02:47:00;;;;;;;24.52;4.60;;;8.40;99.90;;;;;;4993695;28;20042;-54
2021/11/18 02:49:26;;;;;;;26.98;5.20;;;8.40;99.90;;;;;;4993559;28;20054;-53
2021/11/18 02:51:52;;;;;;;28.65;4.60;;;8.50;99.90;;;;;;4993853;28;20030;-51
2021/11/18 02:54:18;;;;;;;26.75;5.57;;;8.50;99.90;;;;;;4993422;28;20404;-52
2021/11/18 02:56:43;;;;;;;29.33;5.03;;;8.50;99.90;;;;;;4993399;28;20039;-53
2021/11/18 02:59:09;;;;;;;25.65;5.28;;;8.50;99.90;;;;;;4993532;28;20031;-53
2021/11/18 03:01:39;;;;;;;18.33;4.78;;;8.50;99.90;;;;;;4993339;28;20034;-53
2021/11/18 03:04:05;;;;;;;28.60;5.43;;;8.50;99.90;;;;;;4993277;28;20052;-53
2021/11/18 03:06:31;;;;;;;23.83;6.25;;;8.60;99.90;;;;;;4993401;28;20113;-54
2021/11/18 03:08:56;;;;;;;27.70;4.97;;;8.60;99.90;;;;;;4993483;28;20480;-52
2021/11/18 03:11:24;;;;;;;30.00;6.70;;;8.60;99.90;;;;;;4993262;28;20038;-53
2021/11/18 03:13:50;;;;;;;33.35;4.93;;;8.70;99.90;;;;;;4993213;28;20129;-53
2021/11/18 03:16:17;;;;;;;27.55;5.97;;;8.60;99.90;;;;;;4992967;28;20138;-53
2021/11/18 03:18:43;;;;;;;36.97;5.95;;;8.60;99.90;;;;;;4993016;28;20113;-53
2021/11/18 03:21:13;;;;;;;27.45;5.38;;;8.60;99.90;;;;;;4993197;28;20052;-52
2021/11/18 03:23:40;;;;;;;30.38;6.38;;;8.60;99.90;;;;;;4993205;28;20038;-53
2021/11/18 03:26:07;;;;;;;22.33;5.93;;;8.60;99.90;;;;;;4993015;28;20034;-53
2021/11/18 03:28:34;;;;;;;21.70;5.45;;;8.50;99.90;;;;;;4992889;28;20444;-54
2021/11/18 03:31:02;;;;;;;32.88;7.00;;;8.50;99.90;;;;;;4992204;28;20046;-53
2021/11/18 03:33:35;;;;;;;32.95;6.18;;;8.60;99.90;;;;;;4992936;28;20121;-54
2021/11/18 03:36:01;;;;;;;35.58;6.22;;;8.50;99.90;;;;;;4992830;28;20117;-54
2021/11/18 03:38:31;;;;;;;35.78;6.07;;;8.60;99.90;;;;;;4991804;28;20097;-52
2021/11/18 03:41:03;;;;;;;28.20;7.00;;;8.50;99.90;;;;;;4992880;28;20047;-52
2021/11/18 03:43:36;;;;;;;32.33;5.68;;;8.50;99.90;;;;;;5024130;28;20049;-54
2021/11/18 03:46:03;;;;;;;30.13;6.85;;;8.50;99.90;;;;;;4992719;28;20538;-53
2021/11/18 03:48:30;;;;;;;37.08;6.28;;;8.60;99.90;;;;;;4993153;28;20034;-53
2021/11/18 03:50:57;;;;;;;30.23;6.35;;;8.60;99.90;;;;;;4992645;28;20440;-53
2021/11/18 03:53:23;;;;;;;22.70;5.72;;;8.60;99.90;;;;;;4992747;28;20042;-54
2021/11/18 03:55:49;;;;;;;29.13;6.55;;;8.60;99.90;;;;;;4992572;28;20096;-53
2021/11/18 03:58:15;;;;;;;28.25;6.40;;;8.60;99.90;;;;;;4992535;28;20424;-53
2021/11/18 04:00:41;;;;;;;34.80;6.57;;;8.70;99.90;;;;;;4992663;28;20092;-53
2021/11/18 04:03:10;;;;;;;29.83;6.38;;;8.60;99.90;;;;;;4992645;28;20038;-53
2021/11/18 04:05:38;;;;;;;32.67;7.00;;;8.70;99.90;;;;;;4992598;28;20109;-54
2021/11/18 04:08:04;;;;;;;35.25;6.70;;;8.70;99.90;;;;;;4992730;28;20049;-53
2021/11/18 04:10:32;;;;;;;26.85;5.57;;;8.70;99.90;;;;;;4991306;28;20493;-53
2021/11/18 04:12:59;;;;;;;28.48;5.70;;;8.70;99.90;;;;;;4992552;28;20057;-53
2021/11/18 04:15:27;;;;;;;35.60;6.15;;;8.70;99.90;;;;;;4992334;28;20623;-53
2021/11/18 04:17:53;;;;;;;29.85;5.82;;;8.70;99.90;;;;;;4992525;28;20042;-54
2021/11/18 04:20:19;;;;;;;25.42;6.70;;;8.70;99.90;;;;;;4992580;28;20049;-53
2021/11/18 04:22:48;;;;;;;32.30;6.55;;;8.70;99.90;;;;;;4992073;28;20125;-53
2021/11/18 04:25:21;;;;;;;31.42;6.53;;;8.70;99.90;;;;;;4992455;28;20084;-53
2021/11/18 04:27:47;;;;;;;29.63;6.55;;;8.70;99.90;;;;;;4992432;28;20105;-54
2021/11/18 04:30:16;;;;;;;40.38;6.45;;;8.70;99.90;;;;;;4992399;28;20393;-54
2021/11/18 04:32:42;;;;;;;33.60;6.38;;;8.80;99.90;;;;;;4992499;28;20396;-54
2021/11/18 04:35:09;;;;;;;31.70;5.65;;;8.80;99.90;;;;;;4992425;28;20054;-52
2021/11/18 04:37:34;;;;;;;26.20;6.18;;;8.80;99.90;;;;;;4992199;28;20043;-53
2021/11/18 04:40:01;;;;;;;21.08;4.90;;;8.80;99.90;;;;;;4992205;28;20038;-54
2021/11/18 04:42:27;;;;;;;31.05;6.60;;;8.70;99.90;;;;;;4994079;28;20100;-53
2021/11/18 04:44:52;;;;;;;28.45;6.57;;;8.80;99.90;;;;;;4995881;28;20488;-53
2021/11/18 04:47:18;;;;;;;25.90;5.05;;;8.80;99.90;;;;;;4995855;28;20061;-53
2021/11/18 04:49:46;;;;;;;22.65;5.15;;;8.80;99.90;;;;;;4996119;28;20070;-53
2021/11/18 04:52:14;;;;;;;35.00;5.60;;;8.80;99.90;;;;;;4995779;28;20399;-53
2021/11/18 04:54:40;;;;;;;23.33;5.13;;;8.80;99.90;;;;;;4995703;28;20121;-53
2021/11/18 04:57:06;;;;;;;31.25;6.95;;;8.80;99.90;;;;;;4995663;28;20050;-51
2021/11/18 04:59:32;;;;;;;36.05;6.78;;;8.80;99.90;;;;;;4995782;28;20038;-53
2021/11/18 05:01:59;;;;;;;35.13;6.13;;;8.90;99.90;;;;;;4995534;28;20080;-53
2021/11/18 05:04:25;;;;;;;39.67;7.85;;;8.90;99.90;;;;;;4995482;28;20034;-53
2021/11/18 05:06:50;;;;;;;30.65;5.82;;;8.80;99.90;;;;;;4995444;28;20046;-53
2021/11/18 05:09:16;;;;;;;29.33;5.88;;;8.80;99.90;;;;;;4995611;28;20096;-53
2021/11/18 05:11:43;;;;;;;26.42;5.55;;;8.80;99.90;;;;;;4995418;28;20121;-54
2021/11/18 05:14:09;;;;;;;25.52;6.32;;;8.80;99.90;;;;;;4995307;28;20046;-54
2021/11/18 05:16:36;;;;;;;27.23;5.00;;;8.80;99.90;;;;;;4995166;28;20097;-52
2021/11/18 05:19:02;;;;;;;23.00;6.85;;;8.80;99.90;;;;;;4995426;28;20038;-53
2021/11/18 05:21:29;;;;;;;19.85;4.97;;;8.80;99.90;;;;;;4995351;28;20046;-52
2021/11/18 05:23:56;;;;;;;33.60;5.72;;;8.80;99.90;;;;;;4995615;28;20365;-53
2021/11/18 05:26:23;;;;;;;29.95;6.45;;;8.80;99.90;;;;;;4995496;28;20448;-53
2021/11/18 05:28:49;;;;;;;35.05;6.50;;;8.80;99.90;;;;;;4995351;28;20047;-54
2021/11/18 05:31:17;;;;;;;31.73;6.40;;;8.80;99.90;;;;;;4995505;28;20104;-53
2021/11/18 05:33:43;;;;;;;30.23;6.63;;;8.80;99.90;;;;;;4995075;28;20392;-53
2021/11/18 05:36:09;;;;;;;26.98;6.00;;;8.80;99.90;;;;;;4995051;28;20144;-54
2021/11/18 05:38:35;;;;;;;25.85;5.22;;;8.80;99.90;;;;;;4995467;28;20039;-52
2021/11/18 05:41:01;;;;;;;24.95;6.13;;;8.80;99.90;;;;;;4994946;28;20097;-53
2021/11/18 05:43:29;;;;;;;27.60;5.28;;;8.80;99.90;;;;;;4994868;28;20492;-53
2021/11/18 05:45:56;;;;;;;29.40;5.87;;;8.80;99.90;;;;;;4994758;28;20038;-53
2021/11/18 05:48:22;;;;;;;29.30;5.72;;;8.80;99.90;;;;;;4994856;28;20349;-53
2021/11/18 05:50:52;;;;;;;28.48;6.90;;;8.80;99.90;;;;;;4995047;28;20481;-53
2021/11/18 05:53:29;;;;;;;24.92;5.60;;;8.80;99.90;;;;;;4993896;28;20129;-54
2021/11/18 05:55:56;;;;;;;29.75;5.85;;;8.80;99.90;;;;;;4994675;28;20031;-54
2021/11/18 05:58:22;;;;;;;27.77;5.95;;;8.80;99.90;;;;;;4994638;28;20440;-53
2021/11/18 06:00:48;;;;;;;26.73;7.10;;;8.80;99.90;;;;;;4994163;28;20039;-52
2021/11/18 06:03:13;;;;;;;23.92;5.15;;;8.80;99.90;;;;;;4994490;28;20034;-54
2021/11/18 06:05:40;;;;;;;33.42;6.68;;;8.80;99.90;;;;;;4994896;28;20048;-53
2021/11/18 06:08:06;;;;;;;26.17;5.82;;;8.80;99.90;;;;;;4994824;28;20109;-53
2021/11/18 06:10:32;;;;;;;24.15;5.85;;;8.80;99.90;;;;;;4994735;28;20053;-53
2021/11/18 06:13:00;;;;;;;27.55;5.63;;;8.80;99.90;;;;;;4994758;28;20047;-54
2021/11/18 06:15:26;;;;;;;27.15;5.13;;;8.80;99.90;;;;;;4994082;28;20121;-54
2021/11/18 06:17:52;;;;;;;31.40;6.55;;;8.80;99.90;;;;;;4994248;28;20097;-53
2021/11/18 06:20:18;;;;;;;34.50;6.07;;;8.80;99.90;;;;;;4994453;28;20388;-54
2021/11/18 06:22:45;;;;;;;29.38;5.85;;;8.80;99.90;;;;;;4994285;28;20130;-53
2021/11/18 06:25:12;;;;;;;28.42;5.00;;;8.80;99.90;;;;;;4994781;28;20046;-53
2021/11/18 06:27:40;;;;;;;29.63;6.03;;;8.80;99.90;;;;;;4994692;28;20046;-53
2021/11/18 06:30:14;;;;;;;29.05;6.28;;;8.80;99.90;;;;;;4994211;28;20045;-53
2021/11/18 06:32:40;;;;;;;24.10;5.65;;;8.70;99.90;;;;;;4994366;28;20081;-53
2021/11/18 06:35:06;;;;;;;31.52;6.53;;;8.80;99.90;;;;;;4994139;28;20038;-54
2021/11/18 06:37:32;;;;;;;25.50;5.72;;;8.80;99.90;;;;;;4994355;28;20065;-53
2021/11/18 06:39:57;;;;;;;27.08;7.00;;;8.80;99.90;;;;;;4993990;28;20481;-54
2021/11/18 06:42:23;;;;;;;25.85;6.00;;;8.90;99.90;;;;;;4992915;28;20465;-54
2021/11/18 06:44:49;;;;;;;25.35;5.25;;;8.90;99.90;;;;;;4993819;28;20038;-52
2021/11/18 06:47:16;;;;;;;32.78;6.07;;;8.90;99.90;;;;;;4994153;28;20489;-54
2021/11/18 06:49:41;;;;;;;31.88;5.43;;;8.90;99.90;;;;;;4994166;28;20068;-53
2021/11/18 06:52:08;;;;;;;27.15;5.60;;;8.90;99.90;;;;;;4993893;28;20035;-52
2021/11/18 06:54:36;;;;;;;28.13;5.68;;;8.90;99.90;;;;;;4993939;28;20046;-53
2021/11/18 06:57:02;;;;;;;27.17;5.90;;;8.90;99.90;;;;;;4994054;28;20430;-54
2021/11/18 06:59:27;;;;;;;27.17;6.22;;;8.90;99.90;;;;;;4993843;28;20158;-53
2021/11/18 07:01:56;;;;;;;24.08;5.00;;;8.80;99.90;;;;;;4993610;28;20049;-53
2021/11/18 07:04:22;;;;;;;28.60;4.85;;;8.80;99.90;;;;;;5025363;28;20149;-54
2021/11/18 07:06:48;;;;;;;25.73;5.82;;;8.80;99.90;;;;;;4994042;28;20042;-54
2021/11/18 07:09:13;;;;;;;23.70;5.18;;;8.80;99.90;;;;;;4993406;28;20121;-54
2021/11/18 07:11:39;;;;;;;22.95;5.05;;;8.80;99.90;;;;;;4993739;28;20458;-53
2021/11/18 07:14:05;;;;;;;23.20;5.40;;;8.80;99.90;;;;;;4993640;28;20038;-53
2021/11/18 07:16:31;;;;;;;37.17;6.53;;;8.80;99.90;;;;;;4993094;28;20054;-54
2021/11/18 07:18:57;;;;;;;24.50;5.30;;;8.80;99.90;;;;;;4993536;28;20042;-53
2021/11/18 07:21:24;;;;;;;18.52;5.00;;;8.80;99.90;;;;;;4993216;28;20050;-53
2021/11/18 07:23:52;;;;;;;24.83;6.38;;;8.80;99.90;;;;;;4991927;28;20050;-53
2021/11/18 07:26:18;;;;;;;27.30;5.00;;;8.80;99.90;;;;;;4993273;28;20093;-52
2021/11/18 07:28:44;;;;;;;26.73;5.13;;;8.80;99.90;;;;;;4993221;28;20771;-54
2021/11/18 07:31:12;;;;;;;30.30;5.38;;;8.90;99.90;;;;;;4993294;28;20109;-53
2021/11/18 07:33:38;;;;;;;23.58;4.60;;;8.80;99.90;;;;;;4993373;28;20038;-53
2021/11/18 07:36:05;;;;;;;24.05;5.65;;;8.80;99.90;;;;;;4992993;28;20389;-53
2021/11/18 07:38:32;;;;;;;25.35;5.88;;;8.80;99.90;;;;;;4993134;28;20125;-54
2021/11/18 07:40:58;;;;;;;25.55;5.65;;;8.80;99.90;;;;;;4992986;28;20038;-53
2021/11/18 07:43:28;;;;;;;25.40;5.82;;;8.70;99.90;;;;;;4992857;28;20527;-53
2021/11/18 07:45:57;;;;;;;24.90;5.13;;;8.70;99.90;;;;;;4993186;28;20065;-54
2021/11/18 07:48:23;;;;;;;26.67;6.00;;;8.70;99.90;;;;;;4992958;28;20046;-52
2021/11/18 07:50:49;;;;;;;23.33;5.05;;;8.80;99.90;;;;;;4992918;28;20038;-53
2021/11/18 07:53:14;;;;;;;29.95;5.97;;;8.80;99.90;;;;;;4993314;28;20121;-53
2021/11/18 07:55:41;;;;;;;26.13;4.68;;;8.80;99.90;;;;;;5024586;28;20050;-52
2021/11/18 07:58:07;;;;;;;28.05;5.43;;;8.80;99.90;;;;;;4992841;28;20042;-53
2021/11/18 08:00:34;;;;;;;19.85;4.65;;;8.80;99.90;;;;;;4993045;28;20145;-54
2021/11/18 08:03:05;;;;;;;22.60;5.20;;;8.90;99.90;;;;;;4992822;28;20124;-53
2021/11/18 08:05:31;;;;;;;25.63;5.30;;;8.90;99.90;;;;;;4992794;28;20034;-53
2021/11/18 08:07:56;;;;;;;23.85;6.13;;;8.90;99.90;;;;;;4992927;28;20049;-54
2021/11/18 08:10:22;;;;;;;22.13;4.28;;;8.90;99.90;;;;;;4992477;28;20042;-54
2021/11/18 08:12:48;;;;;;;26.85;6.20;;;9.00;99.90;;;;;;4992856;28;20046;-53
2021/11/18 08:15:14;;;;;;;29.10;5.43;;;9.00;99.90;;;;;;4992764;28;20436;-53
2021/11/18 08:17:41;;;;;;;22.00;5.10;;;9.00;99.90;;;;;;4994736;28;20100;-52
2021/11/18 08:20:08;;;;;;;32.35;7.88;;;9.00;99.90;;;;;;4996551;28;20531;-52
2021/11/18 08:22:34;;;;;;;21.77;5.05;;;9.00;99.90;;;;;;4996433;28;20125;-53
2021/11/18 08:25:00;;;;;;;23.05;5.85;;;9.00;99.90;;;;;;4996822;28;20122;-52
2021/11/18 08:27:25;;;;;;;16.05;4.40;;;9.10;99.90;;;;;;4996631;28;20452;-54
2021/11/18 08:29:51;;;;;;;20.13;4.55;;;9.00;99.90;;;;;;4996620;28;20038;-54
2021/11/18 08:32:17;;;;;;;20.73;4.93;;;9.00;99.90;;;;;;4996433;28;20072;-53
2021/11/18 08:34:44;;;;;;;27.23;5.50;;;9.10;99.90;;;;;;4996454;28;20073;-53
2021/11/18 08:37:12;;;;;;;22.70;5.05;;;9.10;99.90;;;;;;4996267;28;20050;-54
2021/11/18 08:39:38;;;;;;;22.95;4.75;;;9.10;99.90;;;;;;4996160;28;20443;-53
2021/11/18 08:42:08;;;;;;;33.22;5.97;;;9.20;99.90;;;;;;5011100;28;20054;-54
2021/11/18 08:44:35;;;;;;;22.45;5.70;;;9.20;99.90;;;;;;4995955;28;20086;-53
2021/11/18 08:47:03;;;;;;;28.38;5.32;;;9.30;99.90;;;;;;4996265;28;20038;-54
2021/11/18 08:49:30;;;;;;;28.77;6.18;;;9.30;99.90;;;;;;4996267;28;20489;-53
2021/11/18 08:51:57;;;;;;;23.02;5.22;;;9.90;99.90;;;;;;4996230;28;20445;-52
2021/11/18 08:54:26;;;;;;;18.85;4.43;;;9.30;99.90;;;;;;4996214;28;20038;-53
2021/11/18 08:56:53;;;;;;;25.60;5.78;;;9.40;99.90;;;;;;4996018;28;20121;-53
2021/11/18 08:59:21;;;;;;;22.63;5.05;;;9.40;99.90;;;;;;4995802;28;20552;-52
2021/11/18 09:01:54;;;;;;;28.88;6.68;;;9.40;99.90;;;;;;4995900;28;20073;-53
2021/11/18 09:04:22;;;;;;;19.80;5.32;;;9.40;99.90;;;;;;4995470;28;20038;-53
2021/11/18 09:06:48;;;;;;;14.93;4.78;;;9.40;99.90;;;;;;4995913;28;20104;-54
2021/11/18 09:09:16;;;;;;;22.20;5.35;;;9.40;99.90;;;;;;4995860;28;20035;-53
2021/11/18 09:11:43;;;;;;;23.38;4.40;;;9.50;99.90;;;;;;4995795;28;20068;-54
2021/11/18 09:14:10;;;;;;;21.08;5.63;;;9.50;99.90;;;;;;4995606;28;20042;-53
2021/11/18 09:16:37;;;;;;;21.20;4.50;;;9.50;99.90;;;;;;4995127;28;20515;-54
2021/11/18 09:19:09;;;;;;;22.63;4.28;;;9.50;99.90;;;;;;4995502;28;20043;-53
2021/11/18 09:21:36;;;;;;;18.60;4.70;;;9.40;99.90;;;;;;4995571;28;20046;-53
2021/11/18 09:24:12;;;;;;;23.67;5.03;;;9.50;99.90;;;;;;4995516;28;20070;-54
2021/11/18 09:26:40;;;;;;;22.70;5.00;;;9.50;99.90;;;;;;4995395;28;20374;-54
2021/11/18 09:29:07;;;;;;;19.80;4.30;;;9.50;99.90;;;;;;4993953;28;20042;-53
2021/11/18 09:31:32;;;;;;;26.85;4.50;;;9.60;99.90;;;;;;4995517;28;20060;-53
2021/11/18 09:33:59;;;;;;;24.65;5.25;;;9.70;99.90;;;;;;4995339;28;20125;-54
2021/11/18 09:36:27;;;;;;;20.15;4.18;;;9.80;99.90;;;;;;4995225;28;20042;-54
2021/11/18 09:38:55;;;;;;;26.10;5.32;;;9.90;99.90;;;;;;4995140;28;20038;-53
2021/11/18 09:41:27;;;;;;;29.92;4.60;;;9.90;99.90;;;;;;4995277;28;20552;-53
2021/11/18 09:44:13;;;;;;;18.13;4.22;;;10.10;99.90;;;;;;4994885;28;20074;-53
2021/11/18 09:47:11;;;;;;;18.08;4.50;;;10.10;99.90;;;;;;4995025;28;20150;-54
2021/11/18 09:50:18;;;;;;;20.00;4.13;;;10.20;99.90;;;;;;5032105;28;20056;-54
2021/11/18 09:53:05;;;;;;;18.50;4.05;;;10.30;99.90;;;;;;5032013;28;20128;-54
2021/11/18 09:55:43;;;;;;;24.85;4.82;;;10.50;99.90;;;;;;5015419;28;20509;-53
2021/11/18 09:58:46;;;;;;;22.60;5.10;;;10.60;99.90;;;;;;5031922;28;20542;-54
2021/11/18 10:01:30;;;;;;;19.15;4.10;;;10.70;99.90;;;;;;5031815;28;20099;-54
2021/11/18 10:04:07;;;;;;;16.90;3.72;;;10.80;99.90;;;;;;5031938;28;20033;-54
2021/11/18 10:06:37;;;;;;;16.30;3.88;;;10.90;99.90;;;;;;5031685;28;20103;-54
2021/11/18 10:09:28;;;;;;;23.80;4.47;;;10.90;99.90;;;;;;5031715;28;20048;-54
2021/11/18 10:12:15;;;;;;;21.48;4.03;;;11.00;99.90;;;;;;5031650;28;20037;-54
2021/11/18 10:14:53;;;;;;;18.73;4.53;;;11.10;99.90;;;;;;5031607;28;20045;-54
2021/11/18 10:17:23;;;;;;;28.40;4.18;;;11.10;99.90;;;;;;5031442;28;20088;-54
2021/11/18 10:19:54;;;;;;;17.88;4.50;;;11.10;99.90;;;;;;5031535;28;20350;-54
2021/11/18 10:22:23;;;;;;;25.65;4.00;;;11.30;99.90;;;;;;5031453;28;20041;-54
2021/11/18 10:24:53;;;;;;;16.20;4.85;;;11.30;99.90;;;;;;5031545;28;20073;-54
2021/11/18 10:27:24;;;;;;;21.15;5.50;;;11.40;99.90;;;;;;5003854;28;20054;-54
2021/11/18 10:29:59;;;;;;;23.10;5.07;;;11.40;99.90;;;;;;4994066;28;20042;-54
2021/11/18 10:32:29;;;;;;;23.08;4.22;;;11.40;99.90;;;;;;4994404;28;20050;-54
2021/11/18 10:35:18;;;;;;;25.98;5.60;;;11.30;99.90;;;;;;4994398;28;20128;-54
2021/11/18 10:37:48;;;;;;;26.92;4.72;;;11.30;99.90;;;;;;4994006;28;20038;-54
2021/11/18 10:40:29;;;;;;;17.15;3.80;;;11.30;99.90;;;;;;4993485;28;20481;-54
2021/11/18 10:43:06;;;;;;;30.23;5.63;;;11.40;99.90;;;;;;4994137;28;20039;-54
2021/11/18 10:45:40;;;;;;;20.90;4.97;;;11.50;99.90;;;;;;4993927;28;20539;-54
2021/11/18 10:48:13;;;;;;;21.17;4.00;;;11.70;99.90;;;;;;4993770;28;20121;-54
2021/11/18 10:50:46;;;;;;;24.40;5.47;;;11.90;99.90;;;;;;4993810;28;20042;-54
2021/11/18 10:53:20;;;;;;;16.45;3.92;;;12.00;99.90;;;;;;4993827;28;20380;-54
2021/11/18 10:56:09;;;;;;;19.95;4.15;;;12.10;99.90;;;;;;4993711;28;20121;-54
2021/11/18 10:58:36;;;;;;;19.67;4.35;;;12.20;99.90;;;;;;5030640;28;20054;-52
2021/11/18 11:01:08;;;;;;;21.73;4.25;;;12.30;99.90;;;;;;5030672;28;20045;-54
2021/11/18 11:03:34;;;;;;;22.30;4.07;;;12.20;99.90;;;;;;5030734;28;20049;-53
2021/11/18 11:06:24;;;;;;;23.13;4.72;;;12.20;99.90;;;;;;5030689;28;20068;-54
2021/11/18 11:08:54;;;;;;;21.87;5.13;;;12.10;99.90;;;;;;5030604;28;20081;-54
2021/11/18 11:11:50;;;;;;;20.25;4.10;;;12.10;99.90;;;;;;5030541;28;20045;-53
2021/11/18 11:14:56;;;;;;;20.77;5.13;;;12.00;99.90;;;;;;5030644;28;20041;-54
2021/11/18 11:18:06;;;;;;;22.90;4.07;;;11.90;99.90;;;;;;5030229;28;20065;-54
2021/11/18 11:20:39;;;;;;;24.63;3.67;;;11.90;99.90;;;;;;4933593;29;20162;-54
2021/11/18 11:23:24;;;;;;;28.40;5.60;;;11.90;99.90;;;;;;4933294;29;20189;-53
2021/11/18 11:26:26;;;;;;;27.50;4.88;;;11.80;99.90;;;;;;4933002;29;20048;-53
2021/11/18 11:29:24;;;;;;;21.08;4.07;;;11.80;99.90;;;;;;4933061;29;20094;-54
2021/11/18 11:32:11;;;;;;;17.13;3.65;;;11.80;99.90;;;;;;4933043;29;20526;-53
2021/11/18 11:34:55;;;;;;;19.90;4.38;;;11.80;99.90;;;;;;4931814;29;20050;-54
2021/11/18 11:38:06;;;;;;;21.23;3.67;;;11.80;99.90;;;;;;4914293;29;20060;-54
2021/11/18 11:40:44;;;;;;;30.67;7.10;;;11.90;99.90;;;;;;4913787;29;20059;-54
2021/11/18 11:43:31;;;;;;;21.77;4.63;;;11.90;99.90;;;;;;4913941;29;20095;-54
2021/11/18 11:46:18;;;;;;;26.08;4.38;;;11.90;99.90;;;;;;4913910;29;20565;-53
2021/11/18 11:48:56;;;;;;;25.42;5.18;;;11.90;99.90;;;;;;4913998;29;20044;-54
2021/11/18 11:51:40;;;;;;;26.30;5.43;;;12.00;99.90;;;;;;4913287;29;20404;-54
2021/11/18 11:54:36;;;;;;;28.45;4.90;;;12.00;99.90;;;;;;4913972;29;20044;-54
2021/11/18 11:57:28;;;;;;;20.20;4.32;;;12.00;99.90;;;;;;4951888;28;20137;-54
2021/11/18 12:00:14;;;;;;;21.45;4.22;;;12.00;99.90;;;;;;4992843;28;20034;-53
2021/11/18 12:03:10;;;;;;;21.15;3.80;;;12.00;99.90;;;;;;4992874;28;20093;-54
2021/11/18 12:05:54;;;;;;;16.63;4.15;;;12.00;99.90;;;;;;4992691;28;20093;-53
2021/11/18 12:08:35;;;;;;;23.83;4.70;;;12.00;99.90;;;;;;4992642;28;20192;-54
2021/11/18 12:11:18;;;;;;;21.52;5.03;;;12.00;99.90;;;;;;4992864;28;20387;-54
2021/11/18 12:14:07;;;;;;;23.02;4.60;;;11.90;99.90;;;;;;4992810;28;20042;-53
2021/11/18 12:16:43;;;;;;;19.17;4.72;;;11.90;99.90;;;;;;4992607;28;20058;-55
2021/11/18 12:19:37;;;;;;;22.65;4.43;;;11.80;99.90;;;;;;4992553;28;20046;-54
2021/11/18 12:22:27;;;;;;;17.30;3.92;;;11.80;99.90;;;;;;4992545;28;20038;-54
2021/11/18 12:25:05;;;;;;;16.52;3.60;;;11.70;99.90;;;;;;4992477;28;20049;-53
2021/11/18 12:27:34;;;;;;;25.80;5.32;;;11.70;99.90;;;;;;5024426;28;20053;-54
2021/11/18 12:30:15;;;;;;;25.10;6.05;;;11.70;99.90;;;;;;4992621;28;20038;-54
2021/11/18 12:33:02;;;;;;;20.88;4.68;;;11.70;99.90;;;;;;4992410;28;20064;-53
2021/11/18 12:35:28;;;;;;;13.60;3.80;;;11.70;99.90;;;;;;4992709;28;20056;-54
2021/11/18 12:38:08;;;;;;;27.48;6.20;;;11.70;99.90;;;;;;4992716;28;20047;-53
2021/11/18 12:40:52;;;;;;;29.52;5.15;;;11.70;99.90;;;;;;4991868;28;20396;-54
2021/11/18 12:43:45;;;;;;;24.65;4.47;;;11.70;99.90;;;;;;5023396;28;20074;-54
2021/11/18 12:46:25;;;;;;;21.98;3.83;;;11.60;99.90;;;;;;4992354;28;20039;-54
2021/11/18 12:49:00;;;;;;;14.32;3.70;;;11.60;99.90;;;;;;4992403;28;20038;-54
2021/11/18 12:51:44;;;;;;;25.75;5.18;;;11.60;99.90;;;;;;4992027;28;20054;-54
2021/11/18 12:54:09;;;;;;;24.05;4.28;;;11.60;99.90;;;;;;4992410;28;20603;-54
2021/11/18 12:57:11;;;;;;;43.17;6.55;;;11.60;99.90;;;;;;4992191;28;20050;-53
2021/11/18 12:59:42;;;;;;;25.98;4.93;;;11.60;99.90;;;;;;4992300;28;20042;-54
2021/11/18 13:02:13;;;;;;;22.55;4.15;;;11.60;99.90;;;;;;4992491;28;20117;-54
2021/11/18 13:04:47;;;;;;;18.70;4.72;;;11.60;99.90;;;;;;4995950;28;20046;-54